createdAt,value
2018-09-25T04:18:07.603Z,1023.8
2018-09-25T04:23:30.058Z,1023.83
2018-09-25T04:29:34.285Z,1023.87
2018-09-25T04:30:34.094Z,1023.82
2018-09-25T04:34:56.326Z,1023.8
2018-09-25T04:35:55.493Z,1023.79
2018-09-25T04:36:54.715Z,1023.82
2018-09-25T04:41:20.617Z,1023.8
2018-09-25T05:12:25.677Z,1024.15
2018-09-25T05:13:22.340Z,1024.18
2018-09-25T05:14:21.579Z,1024.16
2018-09-25T05:17:05.668Z,1024.16
2018-09-25T05:21:27.919Z,1024.32
2018-09-25T05:25:50.434Z,1024.36
2018-09-25T05:33:02.467Z,1024.34
2018-09-25T05:35:43.264Z,1024.38
2018-09-25T05:40:05.972Z,1024.38
2018-09-25T05:42:50.848Z,1024.41
2018-09-25T05:47:12.847Z,1024.46
2018-09-25T05:49:54.852Z,1024.42
2018-09-25T05:50:53.482Z,1024.41
2018-09-25T05:52:29.939Z,1024.46
2018-09-25T06:32:08.103Z,1024.53
2018-09-25T06:33:07.080Z,1024.52
2018-09-25T06:34:05.704Z,1024.47
2018-09-25T06:35:04.200Z,1024.47
2018-09-25T06:36:02.856Z,1024.49
2018-09-25T06:37:01.592Z,1024.47
2018-09-25T06:38:00.678Z,1024.48
2018-09-25T06:38:59.432Z,1024.54
2018-09-25T06:39:58.307Z,1024.51
2018-09-25T06:40:56.990Z,1024.57
2018-09-25T06:41:55.824Z,1024.61
2018-09-25T06:42:54.732Z,1024.59
2018-09-25T06:43:54.239Z,1024.63
2018-09-25T06:44:52.970Z,1024.62
2018-09-25T06:45:52.116Z,1024.64
2018-09-25T06:46:51.607Z,1024.58
2018-09-25T06:47:50.508Z,1024.56
2018-09-25T06:48:49.418Z,1024.59
2018-09-25T06:49:48.102Z,1024.56
2018-09-25T06:50:47.263Z,1024.54
2018-09-25T06:51:47.055Z,1024.6
2018-09-25T06:52:45.854Z,1024.61
2018-09-25T06:53:44.681Z,1024.6
2018-09-25T06:54:43.667Z,1024.62
2018-09-25T06:55:42.118Z,1024.6
2018-09-25T06:56:41.068Z,1024.63
2018-09-25T06:57:39.889Z,1024.63
2018-09-25T06:58:38.533Z,1024.66
2018-09-25T06:59:38.529Z,1024.64
2018-09-25T07:00:36.971Z,1024.63
2018-09-25T07:01:35.925Z,1024.61
2018-09-25T07:02:34.450Z,1024.6
2018-09-25T07:03:33.128Z,1024.57
2018-09-25T07:04:31.734Z,1024.6
2018-09-25T07:05:31.216Z,1024.56
2018-09-25T07:06:29.273Z,1024.57
2018-09-25T07:07:28.302Z,1024.53
2018-09-25T07:08:28.035Z,1024.53
2018-09-25T07:09:29.928Z,1024.61
2018-09-25T07:10:29.226Z,1024.59
2018-09-25T07:11:28.024Z,1024.64
2018-09-25T07:12:26.684Z,1024.66
2018-09-25T07:13:27.450Z,1024.67
2018-09-25T07:14:26.704Z,1024.64
2018-09-25T07:15:28.529Z,1024.68
2018-09-25T07:16:28.034Z,1024.67
2018-09-25T07:17:26.443Z,1024.67
2018-09-25T07:18:26.081Z,1024.66
2018-09-25T07:19:25.298Z,1024.68
2018-09-25T07:20:24.305Z,1024.63
2018-09-25T07:21:23.276Z,1024.69
2018-09-25T07:22:21.885Z,1024.69
2018-09-25T07:23:20.591Z,1024.71
2018-09-25T07:24:20.732Z,1024.7
2018-09-25T07:25:23.143Z,1024.73
2018-09-25T07:26:22.101Z,1024.74
2018-09-25T07:27:21.458Z,1024.76
2018-09-25T07:28:20.433Z,1024.76
2018-09-25T07:29:19.422Z,1024.75
2018-09-25T07:30:18.157Z,1024.79
2018-09-25T07:31:16.966Z,1024.79
2018-09-25T07:32:17.809Z,1024.78
2018-09-25T07:33:16.556Z,1024.81
2018-09-25T07:34:15.456Z,1024.76
2018-09-25T07:35:16.432Z,1024.75
2018-09-25T07:36:15.350Z,1024.81
2018-09-25T07:37:14.132Z,1024.79
2018-09-25T07:38:12.931Z,1024.79
2018-09-25T07:39:11.920Z,1024.78
2018-09-25T07:40:12.150Z,1024.81
2018-09-25T07:41:11.138Z,1024.83
2018-09-25T07:42:15.788Z,1024.78
2018-09-25T07:43:14.690Z,1024.82
2018-09-25T07:44:13.401Z,1024.86
2018-09-25T07:45:12.382Z,1024.85
2018-09-25T07:46:11.341Z,1024.87
2018-09-25T07:47:10.084Z,1024.87
2018-09-25T07:48:11.015Z,1024.84
2018-09-25T07:49:11.628Z,1024.89
2018-09-25T07:50:10.179Z,1024.92
2018-09-25T07:51:08.814Z,1024.87
2018-09-25T07:52:10.473Z,1024.95
2018-09-25T07:53:09.160Z,1024.9
2018-09-25T07:54:07.859Z,1024.9
2018-09-25T07:55:06.654Z,1024.9
2018-09-25T07:56:05.270Z,1024.87
2018-09-25T07:57:04.055Z,1024.87
2018-09-25T07:58:02.662Z,1024.86
2018-09-25T07:59:01.439Z,1024.91
2018-09-25T08:00:00.408Z,1024.9
2018-09-25T08:00:59.336Z,1024.93
2018-09-25T08:02:00.288Z,1024.97
2018-09-25T08:02:59.330Z,1025.01
2018-09-25T08:03:57.921Z,1025.01
2018-09-25T08:04:58.602Z,1025
2018-09-25T08:05:57.554Z,1025.05
2018-09-25T08:06:56.522Z,1024.97
2018-09-25T08:07:55.164Z,1024.99
2018-09-25T08:08:53.714Z,1025.02
2018-09-25T08:09:52.348Z,1024.99
2018-09-25T08:10:51.064Z,1024.98
2018-09-25T08:24:33.913Z,1025.06
2018-09-25T08:25:34.451Z,1025.09
2018-09-25T08:26:33.426Z,1024.97
2018-09-25T08:27:45.756Z,1025
2018-09-25T08:31:29.862Z,1024.95
2018-09-25T08:33:31.131Z,1025
2018-09-25T08:35:32.579Z,1025.02
2018-09-25T08:36:41.154Z,1025.05
2018-09-25T08:37:40.312Z,1025.04
2018-09-25T08:38:46.346Z,1025.11
2018-09-25T08:39:45.800Z,1025.15
2018-09-25T08:41:50.105Z,1025.13
2018-09-25T08:42:49.378Z,1025.13
2018-09-25T08:43:48.331Z,1025.12
2018-09-25T08:44:47.412Z,1025.22
2018-09-25T08:46:43.706Z,1025.18
2018-09-25T08:48:02.386Z,1025.15
2018-09-25T08:50:06.831Z,1025.2
2018-09-25T08:52:54.240Z,1025.24
2018-09-25T08:56:43.912Z,1025.23
2018-09-25T08:59:59.036Z,1025.27
2018-09-25T09:01:14.181Z,1025.21
2018-09-25T09:02:18.192Z,1025.2
2018-09-25T09:03:17.215Z,1025.19
2018-09-25T09:04:15.920Z,1025.23
2018-09-25T09:05:15.216Z,1025.23
2018-09-25T09:09:32.759Z,1025.2
2018-09-25T09:13:12.606Z,1025.08
2018-09-25T09:14:11.697Z,1025.09
2018-09-25T09:15:18.705Z,1025.17
2018-09-25T09:16:18.297Z,1025.14
2018-09-25T09:20:09.455Z,1025.27
2018-09-25T09:21:08.461Z,1025.14
2018-09-25T09:22:07.493Z,1025.21
2018-09-25T09:23:08.117Z,1025.23
2018-09-25T09:24:06.688Z,1025.25
2018-09-25T09:25:10.504Z,1025.18
2018-09-25T09:27:58.266Z,1025.24
2018-09-25T09:29:17.638Z,1025.23
2018-09-25T09:32:52.616Z,1025.23
2018-09-25T09:33:56.374Z,1025.2
2018-09-25T09:34:54.995Z,1025.18
2018-09-25T09:41:03.153Z,1025.19
2018-09-25T09:42:05.806Z,1025.19
2018-09-25T09:55:47.504Z,1025.2
2018-09-25T09:56:46.234Z,1025.2
2018-09-25T09:57:44.844Z,1025.15
2018-09-25T10:00:07.875Z,1025.22
2018-09-25T10:01:06.534Z,1025.24
2018-09-25T10:02:05.409Z,1025.27
2018-09-25T10:03:04.199Z,1025.22
2018-09-25T10:04:02.764Z,1025.22
2018-09-25T10:05:01.346Z,1025.28
2018-09-25T10:06:00.556Z,1025.23
2018-09-25T10:07:00.043Z,1025.22
2018-09-25T10:07:58.692Z,1025.2
2018-09-25T10:08:57.377Z,1025.14
2018-09-25T10:09:56.010Z,1025.13
2018-09-25T10:10:55.491Z,1025.2
2018-09-25T10:11:54.237Z,1025.15
2018-09-25T10:12:53.608Z,1025.18
2018-09-25T10:13:52.652Z,1025.16
2018-09-25T10:14:51.236Z,1025.15
2018-09-25T10:15:49.838Z,1025.06
2018-09-25T10:16:48.491Z,1025.09
2018-09-25T10:19:11.339Z,1025.1
2018-09-25T10:20:10.158Z,1025.11
2018-09-25T10:21:09.026Z,1025.17
2018-09-25T10:25:12.669Z,1025.02
2018-09-25T10:26:13.611Z,1025.06
2018-09-25T10:27:12.312Z,1025.04
2018-09-25T10:28:11.927Z,1025.05
2018-09-25T10:29:10.814Z,1025.03
2018-09-25T10:30:10.035Z,1025.08
2018-09-25T10:31:09.195Z,1025.08
2018-09-25T10:32:08.149Z,1025.08
2018-09-25T10:33:06.890Z,1025.02
2018-09-25T10:34:05.679Z,1025.18
2018-09-25T10:35:04.274Z,1025.11
2018-09-25T10:36:04.070Z,1025.04
2018-09-25T10:37:02.814Z,1024.98
2018-09-25T10:39:43.122Z,1025.01
2018-09-25T10:40:41.837Z,1024.95
2018-09-25T10:41:40.734Z,1024.87
2018-09-25T10:42:39.537Z,1024.89
2018-09-25T10:43:38.743Z,1024.97
2018-09-25T10:44:37.909Z,1024.97
2018-09-25T10:45:37.238Z,1025.19
2018-09-25T10:48:17.714Z,1024.96
2018-09-25T10:49:16.860Z,1025.01
2018-09-25T10:50:16.195Z,1024.9
2018-09-25T10:51:14.757Z,1024.94
2018-09-25T10:52:13.863Z,1024.88
2018-09-25T10:54:54.578Z,1024.84
2018-09-25T10:55:53.592Z,1024.83
2018-09-25T10:56:52.256Z,1024.78
2018-09-25T10:57:51.085Z,1025.02
2018-09-25T10:58:49.865Z,1024.89
2018-09-25T10:59:48.576Z,1024.92
2018-09-25T11:00:47.220Z,1024.78
2018-09-25T11:01:45.963Z,1024.76
2018-09-25T11:15:18.264Z,1024.85
2018-09-25T11:16:17.041Z,1024.77
2018-09-25T11:17:16.244Z,1024.76
2018-09-25T11:20:56.630Z,1024.72
2018-09-25T11:21:55.730Z,1024.67
2018-09-25T11:24:36.561Z,1024.66
2018-09-25T11:27:17.474Z,1024.64
2018-09-25T11:28:16.767Z,1024.69
2018-09-25T11:29:16.944Z,1024.64
2018-09-25T11:30:15.746Z,1024.63
2018-09-25T11:33:55.507Z,1024.53
2018-09-25T11:36:37.611Z,1024.48
2018-09-25T11:37:37.335Z,1024.56
2018-09-25T11:38:36.713Z,1024.51
2018-09-25T11:42:01.382Z,1024.46
2018-09-25T11:44:43.366Z,1024.49
2018-09-25T11:45:43.193Z,1024.48
2018-09-25T11:46:42.654Z,1024.4
2018-09-25T11:50:22.823Z,1024.32
2018-09-25T11:51:21.903Z,1024.42
2018-09-25T11:52:21.887Z,1024.52
2018-09-25T11:53:20.761Z,1024.46
2018-09-25T11:56:01.300Z,1024.38
2018-09-25T12:13:03.671Z,1024.25
2018-09-25T12:14:02.539Z,1024.24
2018-09-25T12:15:01.681Z,1024.15
2018-09-25T12:17:42.338Z,1024.12
2018-09-25T12:18:41.764Z,1024.24
2018-09-25T12:19:41.191Z,1024.16
2018-09-25T12:20:39.253Z,1024.22
2018-09-25T12:21:40.675Z,1024.2
2018-09-25T14:59:24.434Z,1023.36
2018-09-25T15:19:26.707Z,1023.1
2018-09-25T15:24:08.038Z,1023.11
2018-09-25T15:28:31.041Z,1023.05
2018-09-25T15:29:29.977Z,1023.05
2018-09-25T15:30:28.384Z,1023.04
2018-09-25T15:31:27.452Z,1023.09
2018-09-25T15:32:26.247Z,1023.1
2018-09-25T15:33:24.981Z,1023.14
2018-09-25T15:34:23.952Z,1023.08
2018-09-25T15:35:22.732Z,1023.05
2018-09-25T15:36:21.430Z,1023.04
2018-09-25T15:37:20.577Z,1023.12
2018-09-25T15:38:19.194Z,1022.96
2018-09-25T15:39:18.275Z,1022.95
2018-09-25T15:40:17.246Z,1022.92
2018-09-25T15:41:15.979Z,1022.9
2018-09-25T15:42:14.598Z,1022.87
2018-09-25T15:43:13.468Z,1022.88
2018-09-25T15:44:12.180Z,1022.82
2018-09-25T15:45:10.859Z,1022.84
2018-09-25T15:47:33.901Z,1022.96
2018-09-25T15:48:32.915Z,1022.88
2018-09-25T15:49:31.975Z,1022.98
2018-09-25T15:50:30.689Z,1022.92
2018-09-25T15:51:29.432Z,1022.93
2018-09-25T15:54:10.505Z,1022.91
2018-09-25T15:55:09.107Z,1022.97
2018-09-25T15:56:08.243Z,1022.91
2018-09-25T15:57:07.154Z,1022.91
2018-09-25T15:58:06.062Z,1022.9
2018-09-25T15:59:05.234Z,1022.99
2018-09-25T16:00:03.930Z,1022.92
2018-09-25T16:01:02.828Z,1022.92
2018-09-25T16:02:01.979Z,1022.89
2018-09-25T16:03:00.592Z,1022.97
2018-09-25T16:03:59.488Z,1022.91
2018-09-25T16:04:58.714Z,1023.05
2018-09-25T16:05:58.921Z,1022.95
2018-09-25T16:08:38.898Z,1022.95
2018-09-25T16:09:37.622Z,1022.93
2018-09-25T16:10:36.425Z,1022.89
2018-09-25T16:11:35.318Z,1023.05
2018-09-25T16:12:34.690Z,1022.89
2018-09-25T16:13:33.561Z,1022.87
2018-09-25T16:14:32.566Z,1022.91
2018-09-25T16:15:31.242Z,1022.99
2018-09-25T16:16:30.529Z,1022.99
2018-09-25T16:17:30.143Z,1022.94
2018-09-25T16:18:29.016Z,1022.95
2018-09-25T16:19:27.539Z,1022.89
2018-09-25T16:20:26.517Z,1022.89
2018-09-25T16:21:25.091Z,1022.91
2018-09-25T16:22:23.663Z,1022.95
2018-09-25T16:23:22.573Z,1022.97
2018-09-25T16:24:21.552Z,1022.89
2018-09-25T16:25:21.596Z,1022.93
2018-09-25T16:26:20.428Z,1022.91
2018-09-25T16:27:19.077Z,1022.88
2018-09-25T16:28:17.997Z,1022.84
2018-09-25T16:29:16.543Z,1022.84
2018-09-25T16:30:15.264Z,1022.92
2018-09-25T16:31:14.095Z,1022.99
2018-09-25T16:33:54.560Z,1022.88
2018-09-25T16:34:53.288Z,1022.83
2018-09-25T16:35:52.172Z,1022.89
2018-09-25T16:36:50.816Z,1022.85
2018-09-25T16:37:49.669Z,1022.87
2018-09-25T16:38:48.495Z,1023.06
2018-09-25T16:39:47.108Z,1023.03
2018-09-25T16:40:46.471Z,1022.89
2018-09-25T16:41:45.344Z,1022.99
2018-09-25T16:42:44.393Z,1022.91
2018-09-25T16:43:42.870Z,1022.94
2018-09-25T16:44:41.459Z,1022.94
2018-09-25T16:45:40.456Z,1022.97
2018-09-25T16:46:39.432Z,1022.93
2018-09-25T16:47:38.207Z,1022.96
2018-09-25T16:48:36.979Z,1022.94
2018-09-25T16:49:35.782Z,1022.92
2018-09-25T16:50:34.341Z,1023.01
2018-09-25T16:51:33.044Z,1022.99
2018-09-25T16:52:31.997Z,1023
2018-09-25T16:53:30.624Z,1022.96
2018-09-25T16:54:29.314Z,1022.91
2018-09-25T16:55:28.222Z,1022.94
2018-09-25T16:58:08.477Z,1023
2018-09-25T16:59:07.834Z,1022.95
2018-09-25T17:00:06.695Z,1022.95
2018-09-25T17:01:05.412Z,1022.95
2018-09-25T17:02:04.195Z,1022.98
2018-09-25T17:03:03.191Z,1023.02
2018-09-25T17:04:01.877Z,1022.97
2018-09-25T17:05:00.856Z,1022.93
2018-09-25T17:05:59.481Z,1022.81
2018-09-25T17:06:58.520Z,1022.87
2018-09-25T17:07:58.031Z,1022.91
2018-09-25T17:08:57.903Z,1022.87
2018-09-25T17:09:56.670Z,1022.86
2018-09-25T17:10:55.354Z,1022.88
2018-09-25T17:11:54.150Z,1022.79
2018-09-25T17:12:53.020Z,1022.81
2018-09-25T17:13:51.781Z,1022.79
2018-09-25T17:14:50.575Z,1022.8
2018-09-25T17:18:46.716Z,1022.77
2018-09-25T17:19:45.735Z,1022.8
2018-09-25T17:20:44.732Z,1022.77
2018-09-25T17:21:43.272Z,1022.86
2018-09-25T17:22:42.203Z,1022.8
2018-09-25T17:23:41.474Z,1022.81
2018-09-25T17:24:41.256Z,1022.78
2018-09-25T17:25:42.637Z,1022.82
2018-09-25T17:26:41.582Z,1022.82
2018-09-25T17:27:41.388Z,1022.78
2018-09-25T17:28:41.135Z,1022.75
2018-09-25T17:29:39.769Z,1022.76
2018-09-25T17:30:39.157Z,1022.76
2018-09-25T17:31:38.042Z,1022.78
2018-09-25T17:33:10.302Z,1022.81
2018-09-25T17:34:08.860Z,1022.79
2018-09-25T17:35:07.720Z,1022.81
2018-09-25T17:36:06.489Z,1022.84
2018-09-25T17:37:12.547Z,1022.77
2018-09-25T17:38:13.849Z,1022.8
2018-09-25T17:39:16.693Z,1022.79
2018-09-25T17:40:15.799Z,1022.82
2018-09-25T17:41:14.611Z,1022.84
2018-09-25T17:42:14.553Z,1022.93
2018-09-25T17:43:16.931Z,1022.9
2018-09-25T17:44:18.321Z,1022.88
2018-09-25T17:45:17.598Z,1022.88
2018-09-25T17:46:17.660Z,1022.93
2018-09-25T17:47:16.793Z,1022.89
2018-09-25T17:48:16.042Z,1022.96
2018-09-25T17:49:15.650Z,1022.95
2018-09-25T17:50:17.309Z,1023
2018-09-25T17:51:24.215Z,1022.97
2018-09-25T17:52:23.241Z,1022.97
2018-09-25T17:53:21.857Z,1023.03
2018-09-25T17:54:20.593Z,1022.98
2018-09-25T17:55:19.470Z,1023.03
2018-09-25T17:56:18.355Z,1023.14
2018-09-25T17:57:17.087Z,1023.12
2018-09-25T17:58:16.031Z,1023.11
2018-09-25T17:59:14.718Z,1023.14
2018-09-25T18:00:13.824Z,1023.18
2018-09-25T18:01:12.704Z,1023.15
2018-09-25T18:02:11.483Z,1023.13
2018-09-25T18:03:10.531Z,1023.17
2018-09-25T18:04:10.212Z,1023.14
2018-09-25T18:05:08.916Z,1023.1
2018-09-25T18:06:07.792Z,1023.17
2018-09-25T18:07:06.471Z,1023.17
2018-09-25T18:09:47.137Z,1023.1
2018-09-25T18:10:45.972Z,1023.08
2018-09-25T18:11:44.933Z,1023.14
2018-09-25T18:12:43.437Z,1023.17
2018-09-25T18:13:46.333Z,1023.16
2018-09-25T18:14:45.215Z,1023.19
2018-09-25T18:15:44.019Z,1023.22
2018-09-25T18:16:42.689Z,1023.29
2018-09-25T18:17:42.169Z,1023.27
2018-09-25T18:18:41.822Z,1023.34
2018-09-25T18:21:22.135Z,1023.32
2018-09-25T18:22:20.643Z,1023.32
2018-09-25T18:23:19.592Z,1023.32
2018-09-25T18:24:18.666Z,1023.28
2018-09-25T18:25:18.494Z,1023.33
2018-09-25T18:26:17.698Z,1023.34
2018-09-25T18:27:17.146Z,1023.31
2018-09-25T18:28:16.141Z,1023.38
2018-09-25T18:30:56.304Z,1023.4
2018-09-25T18:34:18.218Z,1023.48
2018-09-25T18:35:17.047Z,1023.44
2018-09-25T18:36:16.424Z,1023.47
2018-09-25T18:37:15.138Z,1023.49
2018-09-25T18:38:14.223Z,1023.37
2018-09-25T18:39:12.723Z,1023.4
2018-09-25T18:40:11.469Z,1023.43
2018-09-25T18:41:10.565Z,1023.41
2018-09-25T18:42:09.258Z,1023.39
2018-09-25T18:43:08.038Z,1023.39
2018-09-25T18:44:06.933Z,1023.4
2018-09-25T18:45:06.597Z,1023.42
2018-09-25T18:46:05.366Z,1023.41
2018-09-25T18:47:04.487Z,1023.4
2018-09-25T18:48:03.936Z,1023.48
2018-09-25T18:49:02.211Z,1023.52
2018-09-25T18:50:01.123Z,1023.48
2018-09-25T18:51:00.121Z,1023.54
2018-09-25T18:51:59.173Z,1023.53
2018-09-25T18:52:58.142Z,1023.55
2018-09-25T18:53:56.971Z,1023.58
2018-09-25T18:54:55.520Z,1023.59
2018-09-25T18:55:54.517Z,1023.64
2018-09-25T18:56:53.313Z,1023.7
2018-09-25T18:57:52.239Z,1023.66
2018-09-25T18:58:50.919Z,1023.69
2018-09-25T18:59:49.943Z,1023.73
2018-09-25T19:02:30.432Z,1023.68
2018-09-25T19:05:10.947Z,1023.75
2018-09-25T19:06:09.846Z,1023.69
2018-09-25T19:07:08.716Z,1023.76
2018-09-25T19:08:07.700Z,1023.76
2018-09-25T19:09:06.957Z,1023.74
2018-09-25T19:10:04.964Z,1023.78
2018-09-25T19:11:03.910Z,1023.77
2018-09-25T19:12:03.107Z,1023.76
2018-09-25T19:30:33.750Z,1023.83
2018-09-25T19:31:34.009Z,1023.74
2018-09-25T19:32:34.618Z,1023.8
2018-09-25T19:33:33.985Z,1023.88
2018-09-25T19:34:33.956Z,1023.87
2018-09-25T19:35:35.222Z,1023.86
2018-09-25T19:36:34.855Z,1023.92
2018-09-25T19:37:34.470Z,1023.89
2018-09-25T19:38:33.240Z,1023.85
2018-09-25T19:39:33.085Z,1023.85
2018-09-25T19:40:33.528Z,1023.85
2018-09-25T19:41:34.675Z,1023.92
2018-09-25T19:42:33.318Z,1023.84
